Time,TemperatureF,DewpointF,PressureIn,WindDirection,WindDirectionDegrees,WindSpeedMPH,WindSpeedGustMPH,Humidity,HourlyPrecipIn,Conditions,Clouds,dailyrainin,SolarRadiationWatts/m^2,SoftwareType,DateUTC
2013-04-13 00:06:00,39.2,27.7,29.83,West,275,4.0,10.0,63,0.00,,,0.00,0,Wunderground v.1.15,2013-04-13 06:06:00,
2013-04-13 00:13:00,39.3,27.7,29.83,West,275,4.0,6.0,63,0.00,,,0.00,0,Wunderground v.1.15,2013-04-13 06:13:00,
2013-04-13 00:18:00,39.3,27.7,29.82,West,269,10.0,10.0,63,0.00,,,0.00,0,Wunderground v.1.15,2013-04-13 06:18:00,
2013-04-13 00:23:00,39.3,28.1,29.82,WSW,254,9.0,11.0,64,0.00,,,0.00,0,Wunderground v.1.15,2013-04-13 06:23:00,
2013-04-13 00:29:00,39.5,28.7,29.82,WSW,251,9.0,12.0,65,0.00,,,0.00,0,Wunderground v.1.15,2013-04-13 06:29:00,
2013-04-13 00:36:00,39.3,28.5,29.82,WSW,253,8.0,9.0,65,0.00,,,0.00,0,Wunderground v.1.15,2013-04-13 06:36:00,
2013-04-13 00:41:00,39.2,28.4,29.82,WSW,253,7.0,9.0,65,0.00,,,0.00,0,Wunderground v.1.15,2013-04-13 06:41:00,
2013-04-13 00:46:00,39.1,28.3,29.81,WSW,253,7.0,9.0,65,0.00,,,0.00,0,Wunderground v.1.15,2013-04-13 06:46:00,
2013-04-13 00:53:00,38.6,28.2,29.81,WSW,253,8.0,9.0,66,0.00,,,0.00,0,Wunderground v.1.15,2013-04-13 06:53:00,
2013-04-13 00:59:00,38.3,27.6,29.81,WSW,253,8.0,9.0,65,0.00,,,0.00,0,Wunderground v.1.15,2013-04-13 06:59:00,
2013-04-13 01:06:00,37.8,27.5,29.81,WSW,253,7.0,9.0,66,0.00,,,0.00,0,Wunderground v.1.15,2013-04-13 07:06:00,
2013-04-13 01:13:00,37.2,26.9,29.81,WSW,253,0.0,7.0,66,0.00,,,0.00,0,Wunderground v.1.15,2013-04-13 07:13:00,
2013-04-13 01:19:00,36.5,26.9,29.81,WSW,253,3.0,7.0,68,0.00,,,0.00,0,Wunderground v.1.15,2013-04-13 07:19:00,
2013-04-13 01:24:00,35.9,27.1,29.81,WSW,253,0.0,1.0,70,0.00,,,0.00,0,Wunderground v.1.15,2013-04-13 07:24:00,
2013-04-13 01:30:00,35.5,27.0,29.80,WSW,253,0.0,0.0,71,0.00,,,0.00,0,Wunderground v.1.15,2013-04-13 07:30:00,
2013-04-13 01:37:00,35.3,26.8,29.80,WSW,253,0.0,0.0,71,0.00,,,0.00,0,Wunderground v.1.15,2013-04-13 07:37:00,
2013-04-13 01:43:00,35.2,26.7,29.80,WSW,253,0.0,0.0,71,0.00,,,0.00,0,Wunderground v.1.15,2013-04-13 07:43:00,
2013-04-13 01:49:00,35.0,26.9,29.79,WSW,253,0.0,0.0,72,0.00,,,0.00,0,Wunderground v.1.15,2013-04-13 07:49:00,
2013-04-13 01:54:00,34.9,26.8,29.79,WSW,253,0.0,0.0,72,0.00,,,0.00,0,Wunderground v.1.15,2013-04-13 07:54:00,
2013-04-13 02:01:00,34.6,26.5,29.79,WSW,253,0.0,0.0,72,0.00,,,0.00,0,Wunderground v.1.15,2013-04-13 08:01:00,
2013-04-13 02:06:00,34.4,26.3,29.79,WSW,253,0.0,0.0,72,0.00,,,0.00,0,Wunderground v.1.15,2013-04-13 08:06:00,
2013-04-13 02:12:00,34.1,26.3,29.79,WSW,253,0.0,0.0,73,0.00,,,0.00,0,Wunderground v.1.15,2013-04-13 08:12:00,
2013-04-13 02:17:00,34.0,26.3,29.78,WSW,253,0.0,0.0,73,0.00,,,0.00,0,Wunderground v.1.15,2013-04-13 08:17:00,
2013-04-13 02:22:00,33.8,26.4,29.78,WSW,253,0.0,0.0,74,0.00,,,0.00,0,Wunderground v.1.15,2013-04-13 08:22:00,
2013-04-13 02:27:00,33.5,26.1,29.78,WSW,253,0.0,0.0,74,0.00,,,0.00,0,Wunderground v.1.15,2013-04-13 08:27:00,
2013-04-13 02:34:00,33.2,25.8,29.78,WSW,253,0.0,0.0,74,0.00,,,0.00,0,Wunderground v.1.15,2013-04-13 08:34:00,
2013-04-13 02:39:00,32.9,25.2,29.78,WSW,253,0.0,0.0,73,0.00,,,0.00,0,Wunderground v.1.15,2013-04-13 08:39:00,
2013-04-13 02:47:00,32.5,24.5,29.77,WSW,253,0.0,0.0,72,0.00,,,0.00,0,Wunderground v.1.15,2013-04-13 08:47:00,
2013-04-13 02:52:00,31.9,23.9,29.77,WSW,253,0.0,0.0,72,0.00,,,0.00,0,Wunderground v.1.15,2013-04-13 08:52:00,
2013-04-13 02:57:00,31.2,23.5,29.77,WSW,253,0.0,0.0,73,0.00,,,0.00,0,Wunderground v.1.15,2013-04-13 08:57:00,
2013-04-13 03:03:00,30.7,23.4,29.77,WSW,253,0.0,0.0,74,0.00,,,0.00,0,Wunderground v.1.15,2013-04-13 09:03:00,
2013-04-13 03:08:00,30.3,23.0,29.77,WSW,253,0.0,0.0,74,0.00,,,0.00,0,Wunderground v.1.15,2013-04-13 09:08:00,
2013-04-13 03:13:00,30.0,22.7,29.77,WSW,253,0.0,0.0,74,0.00,,,0.00,0,Wunderground v.1.15,2013-04-13 09:13:00,
2013-04-13 03:19:00,29.7,22.7,29.77,WSW,253,0.0,0.0,75,0.00,,,0.00,0,Wunderground v.1.15,2013-04-13 09:19:00,
2013-04-13 03:24:00,29.4,22.5,29.77,WSW,253,0.0,0.0,75,0.00,,,0.00,0,Wunderground v.1.15,2013-04-13 09:24:00,
2013-04-13 03:29:00,29.3,22.7,29.77,WSW,253,0.0,0.0,76,0.00,,,0.00,0,Wunderground v.1.15,2013-04-13 09:29:00,
2013-04-13 03:34:00,29.1,22.5,29.77,WSW,253,0.0,0.0,76,0.00,,,0.00,0,Wunderground v.1.15,2013-04-13 09:34:00,
2013-04-13 03:39:00,29.1,22.5,29.77,WSW,253,0.0,0.0,76,0.00,,,0.00,0,Wunderground v.1.15,2013-04-13 09:39:00,
2013-04-13 03:44:00,29.0,22.4,29.77,WSW,253,0.0,0.0,76,0.00,,,0.00,0,Wunderground v.1.15,2013-04-13 09:44:00,
2013-04-13 03:49:00,28.8,21.9,29.77,WSW,253,0.0,0.0,75,0.00,,,0.00,0,Wunderground v.1.15,2013-04-13 09:49:00,
2013-04-13 03:54:00,28.7,21.8,29.77,WSW,253,0.0,0.0,75,0.00,,,0.00,0,Wunderground v.1.15,2013-04-13 09:54:00,
2013-04-13 03:59:00,28.4,21.5,29.76,WSW,253,0.0,0.0,75,0.00,,,0.00,0,Wunderground v.1.15,2013-04-13 09:59:00,
2013-04-13 04:04:00,28.1,21.5,29.76,WSW,253,0.0,0.0,76,0.00,,,0.00,0,Wunderground v.1.15,2013-04-13 10:04:00,
2013-04-13 04:09:00,27.9,21.3,29.76,WSW,253,0.0,0.0,76,0.00,,,0.00,0,Wunderground v.1.15,2013-04-13 10:09:00,
2013-04-13 04:14:00,27.8,21.2,29.76,WSW,253,0.0,0.0,76,0.00,,,0.00,0,Wunderground v.1.15,2013-04-13 10:14:00,
2013-04-13 04:19:00,27.6,21.0,29.76,WSW,253,0.0,0.0,76,0.00,,,0.00,0,Wunderground v.1.15,2013-04-13 10:19:00,
2013-04-13 04:25:00,27.5,21.2,29.76,WSW,253,0.0,0.0,77,0.00,,,0.00,0,Wunderground v.1.15,2013-04-13 10:25:00,
2013-04-13 04:30:00,27.2,20.9,29.75,WSW,253,0.0,0.0,77,0.00,,,0.00,0,Wunderground v.1.15,2013-04-13 10:30:00,
2013-04-13 04:35:00,27.0,20.7,29.75,WSW,253,0.0,0.0,77,0.00,,,0.00,0,Wunderground v.1.15,2013-04-13 10:35:00,
2013-04-13 04:40:00,26.9,20.7,29.75,WSW,253,0.0,0.0,77,0.00,,,0.00,0,Wunderground v.1.15,2013-04-13 10:40:00,
2013-04-13 04:47:00,26.7,20.8,29.75,WSW,253,5.0,7.0,78,0.00,,,0.00,0,Wunderground v.1.15,2013-04-13 10:47:00,
2013-04-13 04:52:00,26.7,20.8,29.75,WSW,253,6.0,6.0,78,0.00,,,0.00,0,Wunderground v.1.15,2013-04-13 10:52:00,
2013-04-13 04:57:00,26.6,20.7,29.75,WSW,253,5.0,7.0,78,0.00,,,0.00,0,Wunderground v.1.15,2013-04-13 10:57:00,
2013-04-13 05:03:00,26.4,20.5,29.75,WSW,253,6.0,6.0,78,0.00,,,0.00,0,Wunderground v.1.15,2013-04-13 11:03:00,
2013-04-13 05:08:00,26.4,20.5,29.75,WSW,253,8.0,8.0,78,0.00,,,0.00,0,Wunderground v.1.15,2013-04-13 11:08:00,
2013-04-13 05:13:00,26.3,20.4,29.75,WSW,253,8.0,8.0,78,0.00,,,0.00,0,Wunderground v.1.15,2013-04-13 11:13:00,
2013-04-13 05:19:00,26.3,20.4,29.76,WSW,253,5.0,9.0,78,0.00,,,0.00,0,Wunderground v.1.15,2013-04-13 11:19:00,
2013-04-13 05:24:00,26.1,20.2,29.76,WSW,253,1.0,7.0,78,0.00,,,0.00,0,Wunderground v.1.15,2013-04-13 11:24:00,
2013-04-13 05:29:00,26.0,20.1,29.76,WSW,253,0.0,7.0,78,0.00,,,0.00,0,Wunderground v.1.15,2013-04-13 11:29:00,
2013-04-13 05:34:00,25.8,19.9,29.76,WSW,253,0.0,2.0,78,0.00,,,0.00,0,Wunderground v.1.15,2013-04-13 11:34:00,
2013-04-13 05:40:00,25.7,19.8,29.76,WSW,253,0.0,2.0,78,0.00,,,0.00,0,Wunderground v.1.15,2013-04-13 11:40:00,
2013-04-13 05:45:00,25.6,19.7,29.77,WSW,253,0.0,0.0,78,0.00,,,0.00,0,Wunderground v.1.15,2013-04-13 11:45:00,
2013-04-13 05:50:00,25.6,19.7,29.77,WSW,253,0.0,0.0,78,0.00,,,0.00,0,Wunderground v.1.15,2013-04-13 11:50:00,
2013-04-13 05:56:00,25.6,20.0,29.77,WSW,253,0.0,0.0,79,0.00,,,0.00,0,Wunderground v.1.15,2013-04-13 11:56:00,
2013-04-13 06:01:00,25.6,20.0,29.76,WSW,253,0.0,0.0,79,0.00,,,0.00,0,Wunderground v.1.15,2013-04-13 12:01:00,
2013-04-13 06:07:00,25.4,19.8,29.76,WSW,253,0.0,0.0,79,0.00,,,0.00,0,Wunderground v.1.15,2013-04-13 12:07:00,
2013-04-13 06:14:00,25.4,19.5,29.76,WSW,253,0.0,0.0,78,0.00,,,0.00,0,Wunderground v.1.15,2013-04-13 12:14:00,
2013-04-13 06:19:00,25.3,19.4,29.76,WSW,253,0.0,0.0,78,0.00,,,0.00,0,Wunderground v.1.15,2013-04-13 12:19:00,
2013-04-13 06:24:00,25.3,19.4,29.76,WSW,253,0.0,0.0,78,0.00,,,0.00,0,Wunderground v.1.15,2013-04-13 12:24:00,
2013-04-13 06:29:00,25.1,19.5,29.76,WSW,253,0.0,0.0,79,0.00,,,0.00,5,Wunderground v.1.15,2013-04-13 12:29:00,
2013-04-13 06:34:00,25.1,19.5,29.76,WSW,253,0.0,0.0,79,0.00,,,0.00,7,Wunderground v.1.15,2013-04-13 12:34:00,
2013-04-13 06:39:00,25.0,19.4,29.76,WSW,253,0.0,0.0,79,0.00,,,0.00,11,Wunderground v.1.15,2013-04-13 12:39:00,
2013-04-13 06:45:00,24.8,19.2,29.76,WSW,253,0.0,0.0,79,0.00,,,0.00,16,Wunderground v.1.15,2013-04-13 12:45:00,
2013-04-13 06:50:00,24.8,19.2,29.76,WSW,253,0.0,0.0,79,0.00,,,0.00,28,Wunderground v.1.15,2013-04-13 12:50:00,
2013-04-13 06:55:00,24.8,19.5,29.76,WSW,253,0.0,0.0,80,0.00,,,0.00,40,Wunderground v.1.15,2013-04-13 12:55:00,
2013-04-13 07:01:00,25.0,19.4,29.76,WSW,253,0.0,0.0,79,0.00,,,0.00,58,Wunderground v.1.15,2013-04-13 13:01:00,
2013-04-13 07:06:00,25.3,20.0,29.76,WSW,253,0.0,0.0,80,0.00,,,0.00,76,Wunderground v.1.15,2013-04-13 13:06:00,
2013-04-13 07:12:00,25.6,20.6,29.76,WSW,253,0.0,0.0,81,0.00,,,0.00,95,Wunderground v.1.15,2013-04-13 13:12:00,
2013-04-13 07:17:00,26.1,21.4,29.76,WSW,253,0.0,0.0,82,0.00,,,0.00,118,Wunderground v.1.15,2013-04-13 13:17:00,
2013-04-13 07:25:00,27.2,22.4,29.76,WSW,253,0.0,0.0,82,0.00,,,0.00,151,Wunderground v.1.15,2013-04-13 13:25:00,
2013-04-13 07:30:00,27.8,23.0,29.76,WSW,253,0.0,0.0,82,0.00,,,0.00,156,Wunderground v.1.15,2013-04-13 13:30:00,
2013-04-13 07:36:00,28.8,23.7,29.76,WSW,253,0.0,0.0,81,0.00,,,0.00,151,Wunderground v.1.15,2013-04-13 13:36:00,
2013-04-13 07:42:00,29.5,24.1,29.76,WSW,253,0.0,0.0,80,0.00,,,0.00,181,Wunderground v.1.15,2013-04-13 13:42:00,
2013-04-13 07:47:00,30.4,24.4,29.76,WSW,253,0.0,0.0,78,0.00,,,0.00,158,Wunderground v.1.15,2013-04-13 13:47:00,
2013-04-13 07:52:00,31.3,23.6,29.76,WSW,253,0.0,0.0,73,0.00,,,0.00,199,Wunderground v.1.15,2013-04-13 13:52:00,
2013-04-13 07:57:00,32.1,24.1,29.76,WSW,252,0.0,0.0,72,0.00,,,0.00,230,Wunderground v.1.15,2013-04-13 13:57:00,
2013-04-13 08:03:00,32.9,23.1,29.76,WSW,252,0.0,0.0,67,0.00,,,0.00,255,Wunderground v.1.15,2013-04-13 14:03:00,
2013-04-13 08:08:00,33.5,22.6,29.76,WSW,252,0.0,0.0,64,0.00,,,0.00,264,Wunderground v.1.15,2013-04-13 14:08:00,
2013-04-13 08:13:00,34.1,23.2,29.76,WSW,252,0.0,0.0,64,0.00,,,0.00,294,Wunderground v.1.15,2013-04-13 14:13:00,
2013-04-13 08:18:00,34.6,23.3,29.76,WSW,252,0.0,0.0,63,0.00,,,0.00,311,Wunderground v.1.15,2013-04-13 14:18:00,
2013-04-13 08:23:00,35.0,23.3,29.76,WSW,252,0.0,0.0,62,0.00,,,0.00,318,Wunderground v.1.15,2013-04-13 14:23:00,
2013-04-13 08:28:00,35.5,23.8,29.76,WSW,252,0.0,0.0,62,0.00,,,0.00,332,Wunderground v.1.15,2013-04-13 14:28:00,
2013-04-13 08:34:00,36.0,22.6,29.75,WSW,252,0.0,0.0,58,0.00,,,0.00,364,Wunderground v.1.15,2013-04-13 14:34:00,
2013-04-13 08:39:00,36.8,23.8,29.75,WSW,252,0.0,0.0,59,0.00,,,0.00,381,Wunderground v.1.15,2013-04-13 14:39:00,
2013-04-13 08:44:00,37.3,24.3,29.75,WSW,252,0.0,0.0,59,0.00,,,0.00,396,Wunderground v.1.15,2013-04-13 14:44:00,
2013-04-13 08:49:00,38.0,24.1,29.74,WSW,252,3.0,8.0,57,0.00,,,0.00,417,Wunderground v.1.15,2013-04-13 14:49:00,
2013-04-13 08:56:00,39.1,24.3,29.74,WSW,252,0.0,3.0,55,0.00,,,0.00,436,Wunderground v.1.15,2013-04-13 14:56:00,
2013-04-13 09:01:00,39.6,25.2,29.73,WSW,252,0.0,0.0,56,0.00,,,0.00,457,Wunderground v.1.15,2013-04-13 15:01:00,
2013-04-13 09:07:00,40.6,26.5,29.73,WSW,252,0.0,0.0,57,0.00,,,0.00,475,Wunderground v.1.15,2013-04-13 15:07:00,
2013-04-13 09:12:00,41.5,26.5,29.73,WSW,252,0.0,0.0,55,0.00,,,0.00,494,Wunderground v.1.15,2013-04-13 15:12:00,
2013-04-13 09:17:00,42.2,26.7,29.72,WSW,252,0.0,0.0,54,0.00,,,0.00,513,Wunderground v.1.15,2013-04-13 15:17:00,
2013-04-13 09:28:00,43.6,26.6,29.72,WSW,252,0.0,0.0,51,0.00,,,0.00,594,Wunderground v.1.15,2013-04-13 15:28:00,
2013-04-13 09:39:00,44.5,25.0,29.71,WSW,251,0.0,0.0,46,0.00,,,0.00,132,Wunderground v.1.15,2013-04-13 15:39:00,
2013-04-13 09:48:00,44.9,26.9,29.71,SW,219,11.0,11.0,49,0.00,,,0.00,606,Wunderground v.1.15,2013-04-13 15:48:00,
2013-04-13 09:58:00,46.1,26.4,29.71,SSW,213,0.0,9.0,46,0.00,,,0.00,635,Wunderground v.1.15,2013-04-13 15:58:00,
2013-04-13 10:07:00,47.4,27.1,29.71,SSW,204,10.0,10.0,45,0.00,,,0.00,661,Wunderground v.1.15,2013-04-13 16:07:00,
2013-04-13 10:12:00,48.2,26.7,29.71,SSW,202,0.0,8.0,43,0.00,,,0.00,675,Wunderground v.1.15,2013-04-13 16:12:00,
2013-04-13 10:20:00,49.4,26.1,29.69,SSW,202,5.0,5.0,40,0.00,,,0.00,701,Wunderground v.1.15,2013-04-13 16:20:00,
2013-04-13 10:30:00,50.4,25.1,29.68,SSW,202,0.0,4.0,37,0.00,,,0.00,729,Wunderground v.1.15,2013-04-13 16:30:00,
2013-04-13 10:38:00,51.3,23.8,29.68,SSW,201,4.0,4.0,34,0.00,,,0.00,745,Wunderground v.1.15,2013-04-13 16:38:00,
2013-04-13 10:43:00,52.0,23.8,29.68,SSW,201,0.0,8.0,33,0.00,,,0.00,763,Wunderground v.1.15,2013-04-13 16:43:00,
2013-04-13 10:48:00,52.9,25.3,29.67,South,188,7.0,11.0,34,0.00,,,0.00,738,Wunderground v.1.15,2013-04-13 16:48:00,
2013-04-13 10:54:00,53.6,25.2,29.67,South,187,5.0,12.0,33,0.00,,,0.00,788,Wunderground v.1.15,2013-04-13 16:54:00,
2013-04-13 10:59:00,54.4,24.4,29.67,South,187,6.0,12.0,31,0.00,,,0.00,796,Wunderground v.1.15,2013-04-13 16:59:00,
2013-04-13 11:04:00,54.8,23.1,29.67,South,186,5.0,14.0,29,0.00,,,0.00,805,Wunderground v.1.15,2013-04-13 17:04:00,
2013-04-13 11:09:00,55.1,22.5,29.67,SSW,201,12.0,16.0,28,0.00,,,0.00,817,Wunderground v.1.15,2013-04-13 17:09:00,
2013-04-13 11:15:00,55.3,21.0,29.65,SSW,198,8.0,13.0,26,0.00,,,0.00,833,Wunderground v.1.15,2013-04-13 17:15:00,
2013-04-13 11:20:00,55.4,22.8,29.65,SSW,205,12.0,12.0,28,0.00,,,0.00,840,Wunderground v.1.15,2013-04-13 17:20:00,
2013-04-13 11:27:00,55.6,22.1,29.65,SSW,211,15.0,17.0,27,0.00,,,0.00,842,Wunderground v.1.15,2013-04-13 17:27:00,
2013-04-13 11:32:00,55.7,22.2,29.64,SW,215,4.0,8.0,27,0.00,,,0.00,844,Wunderground v.1.15,2013-04-13 17:32:00,
2013-04-13 11:38:00,56.2,23.5,29.64,SSW,206,18.0,18.0,28,0.00,,,0.00,861,Wunderground v.1.15,2013-04-13 17:38:00,
2013-04-13 11:44:00,56.3,22.7,29.64,SSW,213,8.0,10.0,27,0.00,,,0.00,881,Wunderground v.1.15,2013-04-13 17:44:00,
2013-04-13 11:49:00,56.7,23.0,29.62,SSE,165,11.0,14.0,27,0.00,,,0.00,888,Wunderground v.1.15,2013-04-13 17:49:00,
2013-04-13 11:57:00,57.0,18.5,29.62,West,277,29.0,29.0,22,0.00,,,0.00,898,Wunderground v.1.15,2013-04-13 17:57:00,
2013-04-13 12:02:00,57.2,19.7,29.61,WSW,241,11.0,25.0,23,0.00,,,0.00,900,Wunderground v.1.15,2013-04-13 18:02:00,
2013-04-13 12:07:00,57.2,19.7,29.61,SW,236,24.0,26.0,23,0.00,,,0.00,911,Wunderground v.1.15,2013-04-13 18:07:00,
2013-04-13 12:13:00,57.2,18.6,29.61,West,261,19.0,19.0,22,0.00,,,0.00,919,Wunderground v.1.15,2013-04-13 18:13:00,
2013-04-13 12:18:00,57.2,18.6,29.60,WSW,255,26.0,27.0,22,0.00,,,0.00,923,Wunderground v.1.15,2013-04-13 18:18:00,
2013-04-13 12:24:00,57.3,19.8,29.60,WSW,257,26.0,26.0,23,0.00,,,0.00,939,Wunderground v.1.15,2013-04-13 18:24:00,
2013-04-13 12:27:00,57.3,16.5,29.60,West,263,16.0,26.0,20,0.00,,,0.00,944,Wunderground v.1.15,2013-04-13 18:27:00,
2013-04-13 12:33:00,57.8,20.2,29.58,WSW,240,12.0,28.0,23,0.00,,,0.00,942,Wunderground v.1.15,2013-04-13 18:33:00,
2013-04-13 12:38:00,58.0,19.3,29.58,WSW,244,18.0,29.0,22,0.00,,,0.00,954,Wunderground v.1.15,2013-04-13 18:38:00,
2013-04-13 12:43:00,58.1,18.3,29.58,SW,232,19.0,27.0,21,0.00,,,0.00,983,Wunderground v.1.15,2013-04-13 18:43:00,
2013-04-13 12:48:00,58.4,17.4,29.58,West,263,17.0,29.0,20,0.00,,,0.00,984,Wunderground v.1.15,2013-04-13 18:48:00,
2013-04-13 12:54:00,58.7,18.8,29.58,WSW,257,27.0,27.0,21,0.00,,,0.00,1000,Wunderground v.1.15,2013-04-13 18:54:00,
2013-04-13 12:59:00,59.0,17.9,29.58,WSW,251,16.0,27.0,20,0.00,,,0.00,972,Wunderground v.1.15,2013-04-13 18:59:00,
2013-04-13 13:04:00,59.5,17.1,29.57,SW,226,23.0,24.0,19,0.00,,,0.00,976,Wunderground v.1.15,2013-04-13 19:04:00,
2013-04-13 13:09:00,59.8,16.1,29.57,WSW,248,16.0,30.0,18,0.00,,,0.00,963,Wunderground v.1.15,2013-04-13 19:09:00,
2013-04-13 13:14:00,59.9,18.7,29.57,WSW,240,17.0,30.0,20,0.00,,,0.00,976,Wunderground v.1.15,2013-04-13 19:14:00,
2013-04-13 13:19:00,60.2,17.7,29.56,WSW,246,18.0,30.0,19,0.00,,,0.00,969,Wunderground v.1.15,2013-04-13 19:19:00,
2013-04-13 13:24:00,60.5,18.0,29.56,SW,223,21.0,30.0,19,0.00,,,0.00,930,Wunderground v.1.15,2013-04-13 19:24:00,
2013-04-13 13:29:00,60.5,15.4,29.56,WSW,248,17.0,33.0,17,0.00,,,0.00,958,Wunderground v.1.15,2013-04-13 19:29:00,
2013-04-13 13:34:00,60.5,18.0,29.55,WSW,243,24.0,31.0,19,0.00,,,0.00,958,Wunderground v.1.15,2013-04-13 19:34:00,
2013-04-13 13:39:00,60.9,17.0,29.55,SW,218,25.0,32.0,18,0.00,,,0.00,919,Wunderground v.1.15,2013-04-13 19:39:00,
2013-04-13 13:44:00,61.0,17.1,29.55,WSW,248,24.0,32.0,18,0.00,,,0.00,840,Wunderground v.1.15,2013-04-13 19:44:00,
2013-04-13 13:49:00,61.0,15.8,29.54,West,259,21.0,33.0,17,0.00,,,0.00,793,Wunderground v.1.15,2013-04-13 19:49:00,
2013-04-13 13:54:00,61.2,17.3,29.54,SW,233,23.0,29.0,18,0.00,,,0.00,889,Wunderground v.1.15,2013-04-13 19:54:00,
2013-04-13 13:59:00,61.3,16.1,29.54,WSW,257,24.0,32.0,17,0.00,,,0.00,888,Wunderground v.1.15,2013-04-13 19:59:00,
2013-04-13 14:04:00,61.3,16.1,29.54,WSW,250,24.0,32.0,17,0.00,,,0.00,919,Wunderground v.1.15,2013-04-13 20:04:00,
2013-04-13 14:09:00,61.5,16.2,29.54,SW,236,19.0,32.0,17,0.00,,,0.00,974,Wunderground v.1.15,2013-04-13 20:09:00,
2013-04-13 14:14:00,61.6,16.3,29.53,WSW,247,16.0,23.0,17,0.00,,,0.00,918,Wunderground v.1.15,2013-04-13 20:14:00,
2013-04-13 14:19:00,61.8,16.5,29.53,West,265,15.0,32.0,17,0.00,,,0.00,928,Wunderground v.1.15,2013-04-13 20:19:00,
2013-04-13 14:24:00,62.1,16.7,29.53,West,263,30.0,31.0,17,0.00,,,0.00,911,Wunderground v.1.15,2013-04-13 20:24:00,
2013-04-13 14:29:00,62.1,15.3,29.53,SW,233,23.0,32.0,16,0.00,,,0.00,918,Wunderground v.1.15,2013-04-13 20:29:00,
2013-04-13 14:34:00,62.0,16.6,29.53,WSW,241,26.0,31.0,17,0.00,,,0.00,861,Wunderground v.1.15,2013-04-13 20:34:00,
2013-04-13 14:39:00,61.6,16.3,29.53,SW,225,23.0,31.0,17,0.00,,,0.00,909,Wunderground v.1.15,2013-04-13 20:39:00,
2013-04-13 14:44:00,61.5,17.5,29.51,WSW,242,24.0,26.0,18,0.00,,,0.00,881,Wunderground v.1.15,2013-04-13 20:44:00,
2013-04-13 14:49:00,61.8,17.8,29.51,WSW,249,21.0,33.0,18,0.00,,,0.00,898,Wunderground v.1.15,2013-04-13 20:49:00,
2013-04-13 14:54:00,61.8,16.5,29.51,WSW,257,21.0,28.0,17,0.00,,,0.00,888,Wunderground v.1.15,2013-04-13 20:54:00,
2013-04-13 14:59:00,61.8,16.5,29.50,West,263,24.0,31.0,17,0.00,,,0.00,884,Wunderground v.1.15,2013-04-13 20:59:00,
2013-04-13 15:04:00,62.1,16.7,29.50,West,262,27.0,29.0,17,0.00,,,0.00,824,Wunderground v.1.15,2013-04-13 21:04:00,
2013-04-13 15:09:00,62.1,16.7,29.50,SW,227,29.0,29.0,17,0.00,,,0.00,784,Wunderground v.1.15,2013-04-13 21:09:00,
2013-04-13 15:14:00,62.0,18.0,29.49,WSW,238,27.0,36.0,18,0.00,,,0.00,889,Wunderground v.1.15,2013-04-13 21:14:00,
2013-04-13 15:19:00,61.8,19.0,29.49,WSW,248,24.0,36.0,19,0.00,,,0.00,863,Wunderground v.1.15,2013-04-13 21:19:00,
2013-04-13 15:24:00,61.8,17.8,29.49,SW,233,29.0,34.0,18,0.00,,,0.00,835,Wunderground v.1.15,2013-04-13 21:24:00,
2013-04-13 15:29:00,61.6,18.9,29.49,SW,234,27.0,34.0,19,0.00,,,0.00,696,Wunderground v.1.15,2013-04-13 21:29:00,
2013-04-13 15:35:00,61.3,18.6,29.49,WSW,240,26.0,27.0,19,0.00,,,0.00,527,Wunderground v.1.15,2013-04-13 21:35:00,
2013-04-13 15:40:00,61.0,19.6,29.49,SW,224,28.0,28.0,20,0.00,,,0.00,628,Wunderground v.1.15,2013-04-13 21:40:00,
2013-04-13 15:46:00,60.7,19.3,29.48,SW,225,25.0,34.0,20,0.00,,,0.00,577,Wunderground v.1.15,2013-04-13 21:46:00,
2013-04-13 15:51:00,60.4,17.9,29.48,SW,230,25.0,31.0,19,0.00,,,0.00,571,Wunderground v.1.15,2013-04-13 21:51:00,
2013-04-13 15:56:00,60.1,18.8,29.48,SW,233,29.0,31.0,20,0.00,,,0.00,570,Wunderground v.1.15,2013-04-13 21:56:00,
2013-04-13 16:01:00,59.9,18.7,29.47,WSW,247,28.0,30.0,20,0.00,,,0.00,529,Wunderground v.1.15,2013-04-13 22:01:00,
2013-04-13 16:06:00,59.6,18.4,29.47,SW,227,30.0,31.0,20,0.00,,,0.00,341,Wunderground v.1.15,2013-04-13 22:06:00,
2013-04-13 16:11:00,59.0,17.9,29.47,SW,231,26.0,30.0,20,0.00,,,0.00,329,Wunderground v.1.15,2013-04-13 22:11:00,
2013-04-13 16:17:00,58.3,18.5,29.47,WSW,243,25.0,30.0,21,0.00,,,0.00,371,Wunderground v.1.15,2013-04-13 22:17:00,
2013-04-13 16:23:00,58.0,18.2,29.47,WSW,252,23.0,28.0,21,0.00,,,0.00,406,Wunderground v.1.15,2013-04-13 22:23:00,
2013-04-13 16:28:00,58.0,18.2,29.47,WSW,240,25.0,32.0,21,0.00,,,0.00,443,Wunderground v.1.15,2013-04-13 22:28:00,
2013-04-13 16:33:00,58.0,18.2,29.47,WSW,252,24.0,28.0,21,0.00,,,0.00,330,Wunderground v.1.15,2013-04-13 22:33:00,
2013-04-13 16:38:00,58.0,18.2,29.47,WSW,244,24.0,28.0,21,0.00,,,0.00,250,Wunderground v.1.15,2013-04-13 22:38:00,
2013-04-13 16:43:00,57.8,16.9,29.47,SW,236,18.0,24.0,20,0.00,,,0.00,276,Wunderground v.1.15,2013-04-13 22:43:00,
2013-04-13 16:48:00,57.6,16.8,29.46,SSW,205,23.0,28.0,20,0.00,,,0.00,332,Wunderground v.1.15,2013-04-13 22:48:00,
2013-04-13 16:54:00,57.6,17.9,29.46,SW,227,20.0,29.0,21,0.00,,,0.00,355,Wunderground v.1.15,2013-04-13 22:54:00,
2013-04-13 16:59:00,57.8,16.9,29.46,WSW,239,24.0,29.0,20,0.00,,,0.00,362,Wunderground v.1.15,2013-04-13 22:59:00,
2013-04-13 17:04:00,58.0,15.9,29.45,SW,232,21.0,33.0,19,0.00,,,0.00,265,Wunderground v.1.15,2013-04-13 23:04:00,
2013-04-13 17:09:00,58.0,14.7,29.45,SW,236,27.0,33.0,18,0.00,,,0.00,357,Wunderground v.1.15,2013-04-13 23:09:00,
2013-04-13 17:14:00,57.8,15.7,29.45,SW,231,24.0,30.0,19,0.00,,,0.00,220,Wunderground v.1.15,2013-04-13 23:14:00,
2013-04-13 17:19:00,57.6,14.3,29.44,WSW,239,25.0,30.0,18,0.00,,,0.00,483,Wunderground v.1.15,2013-04-13 23:19:00,
2013-04-13 17:24:00,58.0,15.9,29.44,WSW,241,20.0,30.0,19,0.00,,,0.00,445,Wunderground v.1.15,2013-04-13 23:24:00,
2013-04-13 17:29:00,58.1,14.8,29.44,SW,233,31.0,33.0,18,0.00,,,0.00,285,Wunderground v.1.15,2013-04-13 23:29:00,
2013-04-13 17:34:00,58.1,14.8,29.44,SW,236,24.0,29.0,18,0.00,,,0.00,417,Wunderground v.1.15,2013-04-13 23:34:00,
2013-04-13 17:40:00,58.3,16.2,29.44,WSW,247,26.0,26.0,19,0.00,,,0.00,439,Wunderground v.1.15,2013-04-13 23:40:00,
2013-04-13 17:46:00,58.6,15.2,29.44,WSW,251,38.0,38.0,18,0.00,,,0.00,482,Wunderground v.1.15,2013-04-13 23:46:00,
2013-04-13 17:55:00,58.9,15.4,29.44,WSW,252,23.0,30.0,18,0.00,,,0.00,392,Wunderground v.1.15,2013-04-13 23:55:00,
2013-04-13 18:00:00,59.0,15.5,29.43,WSW,257,27.0,27.0,18,0.00,,,0.00,367,Wunderground v.1.15,2013-04-14 00:00:00,
2013-04-13 18:05:00,58.9,15.4,29.43,WSW,238,20.0,38.0,18,0.00,,,0.00,329,Wunderground v.1.15,2013-04-14 00:05:00,
2013-04-13 18:10:00,58.6,15.2,29.43,WSW,246,24.0,26.0,18,0.00,,,0.00,172,Wunderground v.1.15,2013-04-14 00:10:00,
2013-04-13 18:18:00,57.5,14.3,29.42,SW,232,17.0,34.0,18,0.00,,,0.00,171,Wunderground v.1.15,2013-04-14 00:18:00,
2013-04-13 18:23:00,57.0,13.8,29.42,WSW,241,27.0,35.0,18,0.00,,,0.00,98,Wunderground v.1.15,2013-04-14 00:23:00,
2013-04-13 18:28:00,56.5,13.4,29.42,WSW,242,25.0,35.0,18,0.00,,,0.00,81,Wunderground v.1.15,2013-04-14 00:28:00,
2013-04-13 18:33:00,55.9,14.2,29.41,WSW,252,26.0,32.0,19,0.00,,,0.00,74,Wunderground v.1.15,2013-04-14 00:33:00,
2013-04-13 18:38:00,55.4,14.9,29.41,WSW,240,27.0,32.0,20,0.00,,,0.00,69,Wunderground v.1.15,2013-04-14 00:38:00,
2013-04-13 18:45:00,55.1,14.7,29.40,WSW,240,22.0,27.0,20,0.00,,,0.00,172,Wunderground v.1.15,2013-04-14 00:45:00,
2013-04-13 18:50:00,55.1,14.7,29.40,SW,236,32.0,34.0,20,0.00,,,0.00,204,Wunderground v.1.15,2013-04-14 00:50:00,
2013-04-13 18:56:00,55.3,14.8,29.40,WSW,237,25.0,34.0,20,0.00,,,0.00,167,Wunderground v.1.15,2013-04-14 00:56:00,
2013-04-13 19:02:00,55.3,16.0,29.40,WSW,248,24.0,30.0,21,0.00,,,0.00,118,Wunderground v.1.15,2013-04-14 01:02:00,
2013-04-13 19:07:00,55.0,15.7,29.40,WSW,240,31.0,32.0,21,0.00,,,0.00,46,Wunderground v.1.15,2013-04-14 01:07:00,
2013-04-13 19:13:00,54.5,15.3,29.40,SW,231,25.0,26.0,21,0.00,,,0.00,23,Wunderground v.1.15,2013-04-14 01:13:00,
2013-04-13 19:18:00,54.1,16.0,29.40,WSW,242,21.0,26.0,22,0.00,,,0.00,18,Wunderground v.1.15,2013-04-14 01:18:00,
2013-04-13 19:24:00,53.6,16.6,29.40,SW,234,23.0,24.0,23,0.00,,,0.00,12,Wunderground v.1.15,2013-04-14 01:24:00,
2013-04-13 19:29:00,53.3,15.4,29.40,SW,235,15.0,25.0,22,0.00,,,0.00,9,Wunderground v.1.15,2013-04-14 01:29:00,
2013-04-13 19:34:00,52.9,16.1,29.40,SW,230,22.0,26.0,23,0.00,,,0.00,7,Wunderground v.1.15,2013-04-14 01:34:00,
2013-04-13 19:40:00,52.5,15.7,29.40,WSW,239,20.0,20.0,23,0.00,,,0.00,0,Wunderground v.1.15,2013-04-14 01:40:00,
2013-04-13 19:45:00,52.2,15.5,29.39,WSW,237,16.0,24.0,23,0.00,,,0.00,0,Wunderground v.1.15,2013-04-14 01:45:00,
2013-04-13 19:50:00,52.0,16.3,29.39,SW,226,15.0,20.0,24,0.00,,,0.00,0,Wunderground v.1.15,2013-04-14 01:50:00,
2013-04-13 19:56:00,51.7,16.0,29.39,SW,228,11.0,20.0,24,0.00,,,0.00,0,Wunderground v.1.15,2013-04-14 01:56:00,
2013-04-13 20:04:00,51.3,15.7,29.39,SW,236,5.0,13.0,24,0.00,,,0.00,0,Wunderground v.1.15,2013-04-14 02:04:00,
2013-04-13 20:10:00,51.0,15.4,29.39,SW,221,14.0,14.0,24,0.00,,,0.00,0,Wunderground v.1.15,2013-04-14 02:10:00,
2013-04-13 20:15:00,50.5,15.9,29.38,SW,229,7.0,15.0,25,0.00,,,0.00,0,Wunderground v.1.15,2013-04-14 02:15:00,
2013-04-13 20:20:00,50.4,15.8,29.38,SW,224,16.0,19.0,25,0.00,,,0.00,0,Wunderground v.1.15,2013-04-14 02:20:00,
2013-04-13 20:26:00,50.2,15.7,29.38,SSW,213,23.0,24.0,25,0.00,,,0.00,0,Wunderground v.1.15,2013-04-14 02:26:00,
2013-04-13 20:31:00,50.2,15.7,29.37,SW,228,18.0,23.0,25,0.00,,,0.00,0,Wunderground v.1.15,2013-04-14 02:31:00,
2013-04-13 20:36:00,50.1,16.5,29.37,SW,234,21.0,23.0,26,0.00,,,0.00,0,Wunderground v.1.15,2013-04-14 02:36:00,
2013-04-13 20:42:00,50.1,16.5,29.37,SW,220,18.0,22.0,26,0.00,,,0.00,0,Wunderground v.1.15,2013-04-14 02:42:00,
2013-04-13 20:47:00,50.1,16.5,29.38,SW,220,22.0,24.0,26,0.00,,,0.00,0,Wunderground v.1.15,2013-04-14 02:47:00,
2013-04-13 20:56:00,50.1,16.5,29.38,SW,225,19.0,24.0,26,0.00,,,0.00,0,Wunderground v.1.15,2013-04-14 02:56:00,
2013-04-13 21:01:00,49.9,16.3,29.38,WSW,242,17.0,22.0,26,0.00,,,0.00,0,Wunderground v.1.15,2013-04-14 03:01:00,
2013-04-13 21:07:00,49.9,16.3,29.38,SW,233,13.0,22.0,26,0.00,,,0.00,0,Wunderground v.1.15,2013-04-14 03:07:00,
2013-04-13 21:13:00,49.9,17.2,29.38,SW,236,10.0,18.0,27,0.00,,,0.00,0,Wunderground v.1.15,2013-04-14 03:13:00,
2013-04-13 21:18:00,49.8,16.2,29.39,WSW,238,10.0,18.0,26,0.00,,,0.00,0,Wunderground v.1.15,2013-04-14 03:18:00,
2013-04-13 21:24:00,49.8,16.2,29.39,WSW,246,13.0,15.0,26,0.00,,,0.00,0,Wunderground v.1.15,2013-04-14 03:24:00,
2013-04-13 21:29:00,49.6,16.9,29.39,WSW,240,11.0,15.0,27,0.00,,,0.00,0,Wunderground v.1.15,2013-04-14 03:29:00,
2013-04-13 21:34:00,49.5,17.7,29.38,WSW,246,14.0,19.0,28,0.00,,,0.00,0,Wunderground v.1.15,2013-04-14 03:34:00,
2013-04-13 21:39:00,49.5,17.7,29.38,WSW,244,18.0,20.0,28,0.00,,,0.00,0,Wunderground v.1.15,2013-04-14 03:39:00,
2013-04-13 21:44:00,49.5,17.7,29.38,WSW,250,13.0,17.0,28,0.00,,,0.00,0,Wunderground v.1.15,2013-04-14 03:44:00,
2013-04-13 21:49:00,49.4,17.6,29.39,WSW,245,15.0,17.0,28,0.00,,,0.00,0,Wunderground v.1.15,2013-04-14 03:49:00,
2013-04-13 21:54:00,49.4,17.6,29.39,WSW,244,18.0,24.0,28,0.00,,,0.00,0,Wunderground v.1.15,2013-04-14 03:54:00,
2013-04-13 21:59:00,49.5,18.5,29.38,WSW,248,13.0,24.0,29,0.00,,,0.00,0,Wunderground v.1.15,2013-04-14 03:59:00,
2013-04-13 22:00:00,49.5,18.5,29.38,SW,236,16.0,17.0,29,0.00,,,0.00,0,Wunderground v.1.15,2013-04-14 04:00:00,
2013-04-13 22:06:00,49.6,19.4,29.38,WSW,248,22.0,22.0,30,0.00,,,0.00,0,Wunderground v.1.15,2013-04-14 04:06:00,
2013-04-13 22:11:00,49.5,19.3,29.38,West,263,16.0,21.0,30,0.00,,,0.00,0,Wunderground v.1.15,2013-04-14 04:11:00,
2013-04-13 22:17:00,49.6,20.2,29.37,WSW,254,23.0,29.0,31,0.00,,,0.00,0,Wunderground v.1.15,2013-04-14 04:17:00,
2013-04-13 22:22:00,49.8,20.3,29.37,WSW,245,22.0,26.0,31,0.00,,,0.00,0,Wunderground v.1.15,2013-04-14 04:22:00,
2013-04-13 22:27:00,49.9,20.4,29.37,WSW,241,31.0,31.0,31,0.00,,,0.00,0,Wunderground v.1.15,2013-04-14 04:27:00,
2013-04-13 22:33:00,50.2,20.7,29.36,WSW,244,21.0,28.0,31,0.00,,,0.00,0,Wunderground v.1.15,2013-04-14 04:33:00,
2013-04-13 22:38:00,50.4,21.6,29.36,WSW,242,21.0,32.0,32,0.00,,,0.00,0,Wunderground v.1.15,2013-04-14 04:38:00,
2013-04-13 22:43:00,50.2,22.2,29.36,WSW,240,23.0,24.0,33,0.00,,,0.00,0,Wunderground v.1.15,2013-04-14 04:43:00,
2013-04-13 22:48:00,50.1,21.3,29.36,WSW,242,20.0,24.0,32,0.00,,,0.00,0,Wunderground v.1.15,2013-04-14 04:48:00,
2013-04-13 22:54:00,49.9,21.9,29.36,West,263,28.0,28.0,33,0.00,,,0.00,0,Wunderground v.1.15,2013-04-14 04:54:00,
2013-04-13 22:59:00,49.8,23.2,29.36,WSW,254,26.0,32.0,35,0.00,,,0.00,0,Wunderground v.1.15,2013-04-14 04:59:00,
2013-04-13 23:04:00,49.5,24.9,29.34,WSW,240,31.0,37.0,38,0.00,,,0.00,0,Wunderground v.1.15,2013-04-14 05:04:00,
2013-04-13 23:09:00,49.4,25.4,29.34,WSW,251,22.0,39.0,39,0.00,,,0.00,0,Wunderground v.1.15,2013-04-14 05:09:00,
2013-04-13 23:14:00,49.1,25.8,29.34,WSW,250,22.0,31.0,40,0.00,,,0.00,0,Wunderground v.1.15,2013-04-14 05:14:00,
2013-04-13 23:19:00,48.8,25.5,29.33,WSW,254,21.0,31.0,40,0.00,,,0.00,0,Wunderground v.1.15,2013-04-14 05:19:00,
2013-04-13 23:24:00,48.5,25.8,29.33,WSW,257,21.0,27.0,41,0.00,,,0.00,0,Wunderground v.1.15,2013-04-14 05:24:00,
2013-04-13 23:29:00,48.2,26.2,29.31,WSW,255,18.0,27.0,42,0.00,,,0.00,0,Wunderground v.1.15,2013-04-14 05:29:00,
2013-04-13 23:34:00,48.0,26.5,29.31,WSW,257,17.0,23.0,43,0.00,,,0.00,0,Wunderground v.1.15,2013-04-14 05:34:00,
2013-04-13 23:39:00,47.7,27.4,29.31,WSW,254,18.0,29.0,45,0.00,,,0.00,0,Wunderground v.1.15,2013-04-14 05:39:00,
2013-04-13 23:44:00,47.6,27.3,29.31,WSW,255,28.0,28.0,45,0.00,,,0.00,0,Wunderground v.1.15,2013-04-14 05:44:00,
2013-04-13 23:49:00,47.4,27.1,29.30,WSW,249,25.0,32.0,45,0.00,,,0.00,0,Wunderground v.1.15,2013-04-14 05:49:00,
2013-04-13 23:54:00,47.4,27.1,29.30,WSW,246,23.0,26.0,45,0.00,,,0.00,0,Wunderground v.1.15,2013-04-14 05:54:00,
2013-04-13 23:59:00,47.4,27.1,29.29,WSW,254,16.0,29.0,45,0.00,,,0.00,0,Wunderground v.1.15,2013-04-14 05:59:00,